Impacts METAR Board
IDs:

KMEM - Memphis Intl, TN, US

Updated at: 0500 UTC 17 Aug 2018
Potential Impact None Slight Moderate High
Time 16/17Z 16/18Z 16/19Z 16/20Z 16/21Z 16/22Z 16/23Z 17/00Z 17/01Z 17/02Z 17/03Z 17/04Z 17/05Z
Temp84 86 90 94 92 93 93 90 89 87 85 83 83
Dewpt76 77 78 77 75 76 76 75 75 75 74 74 74
Altim30.07 30.06 30.02 30.00 29.99 29.97 29.98 29.98 29.99 30.00 30.03 30.05 30.02
VIS10 10 10 10 10 10 10 10 10 10 10 10 10
CIG90 250 250 100 75 250 250 250 -- -- -- -- --
CoverBKNBKNBKNBKNBKNBKNBKNBKNSCTSCTSCTSCTSCT
FltCatVFRVFRVFRVFRVFRVFRVFRVFRVFRVFRVFRVFRVFR
WX--------------------------
WDir140190210250230210230210210200170180190
WSpd4 7 7 9 9 11 9 7 6 6 8 8 12
WGst-- -- -- -- -- 16 -- -- -- -- -- -- --
Raw hourly METARs
KMEM 161654Z 14004KT 10SM FEW060 BKN090 BKN110 BKN250 29/24 A3007 RMK AO2 LTG DSNT NE SLP178 T02890244
KMEM 161754Z 19007KT 10SM FEW060 SCT100 BKN250 30/25 A3006 RMK AO2 SLP174 T03000250 10300 20267 58003
KMEM 161854Z 21007KT 10SM FEW035 SCT100 BKN250 32/26 A3002 RMK AO2 SLP161 T03220256
KMEM 161954Z 25009KT 10SM SCT040 BKN100 BKN250 34/25 A3000 RMK AO2 SLP153 T03440250
KMEM 162054Z 23009KT 10SM SCT045 BKN075 BKN250 33/24 A2999 RMK AO2 SLP150 T03330239 56024
KMEM 162154Z 21011G16KT 10SM FEW045 BKN250 34/24 A2997 RMK AO2 SLP145 T03390244
KMEM 162254Z 23009KT 10SM FEW046 BKN250 34/24 A2998 RMK AO2 SLP145 T03390244
KMEM 162354Z 21007KT 10SM FEW046 FEW100 BKN250 32/24 A2998 RMK AO2 SLP146 T03220239 10350 20300 55004
KMEM 170054Z 21006KT 10SM FEW046 SCT250 32/24 A2999 RMK AO2 SLP149 T03170239
KMEM 170154Z 20006KT 10SM FEW070 SCT250 31/24 A3000 RMK AO2 SLP155 T03060239
KMEM 170254Z 17008KT 10SM SCT070 29/23 A3003 RMK AO2 SLP163 T02940233 53017
KMEM 170354Z 18008KT 10SM SCT080 28/23 A3005 RMK AO2 LTG DSNT N SLP171 T02830233
KMEM 170454Z 19012KT 10SM FEW044 SCT075 SCT250 28/23 A3002 RMK AO2 SLP161 FRQ LTGICCC DSNT N CB DSNT N MOV SE T02830233



Page loaded:  05:24 UTC  |   10:24 PM Pacific  |   11:24 PM Mountain  |   12:24 AM Central  |   01:24 AM Eastern

 

ADVISORIES

FORECASTS

FORECASTS

OBSERVATIONS

USER TOOLS

ABOUT US